createdAt,value
2018-06-02T00:00:40.926Z,101234.80
2018-06-02T00:03:08.990Z,101233.00
2018-06-02T00:05:36.515Z,101223.70
2018-06-02T00:08:04.043Z,101223.69
2018-06-02T00:10:31.938Z,101225.04
2018-06-02T00:12:59.459Z,101224.59
2018-06-02T00:15:26.978Z,101210.41
2018-06-02T00:17:54.877Z,101202.89
2018-06-02T00:20:22.393Z,101214.83
2018-06-02T00:22:49.910Z,101209.51
2018-06-02T00:25:17.787Z,101206.84
2018-06-02T00:27:45.310Z,101211.70
2018-06-02T00:30:12.827Z,101201.53
2018-06-02T00:32:41.005Z,101194.45
2018-06-02T00:35:08.518Z,101195.33
2018-06-02T00:37:36.038Z,101185.14
2018-06-02T00:40:03.882Z,101184.70
2018-06-02T00:42:31.442Z,101186.89
2018-06-02T00:44:58.966Z,101189.09
2018-06-02T00:47:26.848Z,101183.77
2018-06-02T00:49:54.724Z,101178.45
2018-06-02T00:52:22.246Z,101177.11
2018-06-02T00:55:01.830Z,101177.98
2018-06-02T00:57:29.693Z,101170.45
2018-06-02T00:59:57.218Z,101136.28
2018-06-02T01:02:24.885Z,101177.02
2018-06-02T01:04:52.671Z,101174.34
2018-06-02T01:07:20.187Z,101171.23
2018-06-02T01:09:47.853Z,101171.22
2018-06-02T01:12:15.670Z,101171.64
2018-06-02T01:14:43.197Z,101163.66
2018-06-02T01:17:11.087Z,101164.98
2018-06-02T01:19:38.681Z,101164.98
2018-06-02T01:22:06.202Z,101157.91
2018-06-02T01:24:33.878Z,101160.55
2018-06-02T01:27:01.630Z,101163.20
2018-06-02T01:29:29.397Z,101161.44
2018-06-02T01:31:57.015Z,101161.88
2018-06-02T01:34:24.650Z,101160.11
2018-06-02T01:36:52.223Z,101155.70
2018-06-02T01:39:20.024Z,101152.17
2018-06-02T01:41:47.688Z,101156.59
2018-06-02T01:44:15.367Z,101142.88
2018-06-02T01:46:43.201Z,101150.87
2018-06-02T01:49:10.721Z,101142.48
2018-06-02T01:51:38.986Z,101136.70
2018-06-02T01:54:06.899Z,101135.86
2018-06-02T01:56:34.415Z,101138.96
2018-06-02T01:59:02.243Z,101135.42
2018-06-02T02:01:30.326Z,101131.45
2018-06-02T02:03:57.903Z,101134.10
2018-06-02T02:06:25.420Z,101131.02
2018-06-02T02:08:53.492Z,101131.48
2018-06-02T02:11:21.013Z,101137.66
2018-06-02T02:13:48.534Z,101134.14
2018-06-02T02:16:16.364Z,101139.45
2018-06-02T02:18:43.882Z,101141.66
2018-06-02T02:21:11.414Z,101145.20
2018-06-02T02:23:39.035Z,101144.78
2018-06-02T02:26:06.739Z,101151.46
2018-06-02T02:28:34.257Z,101153.69
2018-06-02T02:31:02.141Z,101150.61
2018-06-02T02:33:29.658Z,101147.51
2018-06-02T02:35:57.505Z,101149.30
2018-06-02T02:38:25.432Z,101141.80
2018-06-02T02:40:52.952Z,101151.54
2018-06-02T02:43:20.473Z,101150.64
2018-06-02T02:45:48.602Z,101153.75
2018-06-02T02:48:16.122Z,101153.33
2018-06-02T02:50:43.653Z,101158.66
2018-06-02T02:53:11.749Z,101152.92
2018-06-02T02:55:39.265Z,101153.38
2018-06-02T02:58:06.786Z,101148.06
2018-06-02T03:00:34.711Z,101157.78
2018-06-02T03:03:03.149Z,101151.16
2018-06-02T03:05:30.737Z,101152.02
2018-06-02T03:07:58.592Z,101156.45
2018-06-02T03:10:26.114Z,101157.78
2018-06-02T03:12:53.630Z,101152.03
2018-06-02T03:15:21.386Z,101157.80
2018-06-02T03:17:48.907Z,101150.70
2018-06-02T03:20:17.085Z,101153.80
2018-06-02T03:22:44.686Z,101157.34
2018-06-02T03:25:12.286Z,101158.68
2018-06-02T03:27:39.804Z,101166.20
2018-06-02T03:30:07.446Z,101175.50
2018-06-02T03:32:34.966Z,101171.08
2018-06-02T03:35:02.769Z,101174.62
2018-06-02T03:37:30.644Z,101170.20
2018-06-02T03:39:58.159Z,101168.42
2018-06-02T03:42:25.770Z,101162.67
2018-06-02T03:44:53.385Z,101167.98
2018-06-02T03:47:20.901Z,101175.95
2018-06-02T03:49:48.423Z,101167.11
2018-06-02T03:52:16.330Z,101170.64
2018-06-02T03:54:43.852Z,101164.00
2018-06-02T03:57:11.697Z,101155.59
2018-06-02T03:59:39.621Z,101156.52
2018-06-02T04:02:07.134Z,101160.06
2018-06-02T04:04:34.649Z,101154.30
2018-06-02T04:07:03.034Z,101157.84
2018-06-02T04:09:30.547Z,101145.89
2018-06-02T04:11:58.497Z,101140.13
2018-06-02T04:14:26.538Z,101147.22
2018-06-02T04:16:54.054Z,101144.56
2018-06-02T04:19:21.964Z,101140.58
2018-06-02T04:21:53.866Z,101147.66
2018-06-02T04:24:21.400Z,101130.39
2018-06-02T04:26:49.154Z,101138.80
2018-06-02T04:29:20.770Z,101129.50
2018-06-02T04:31:48.285Z,101137.02
2018-06-02T04:34:15.882Z,101135.69
2018-06-02T04:36:43.760Z,101134.80
2018-06-02T04:39:11.858Z,101134.34
2018-06-02T04:41:41.578Z,101130.80
2018-06-02T04:44:09.114Z,101139.20
2018-06-02T04:46:36.938Z,101133.42
2018-06-02T04:49:04.870Z,101131.19
2018-06-02T04:51:32.417Z,101130.28
2018-06-02T04:54:00.229Z,101128.05
2018-06-02T04:56:27.922Z,101128.91
2018-06-02T04:58:55.458Z,101131.11
2018-06-02T05:01:23.058Z,101131.56
2018-06-02T05:03:50.843Z,101135.98
2018-06-02T05:06:18.384Z,101135.52
2018-06-02T05:08:46.198Z,101132.84
2018-06-02T05:11:14.129Z,101135.92
2018-06-02T05:13:41.702Z,101138.55
2018-06-02T05:16:09.215Z,101133.22
2018-06-02T05:18:37.198Z,101136.74
2018-06-02T05:21:04.758Z,101126.52
2018-06-02T05:23:32.274Z,101122.48
2018-06-02T05:26:00.405Z,101125.11
2018-06-02T05:28:27.976Z,101128.18
2018-06-02T05:30:55.525Z,101131.25
2018-06-02T05:33:23.114Z,101128.11
2018-06-02T05:35:50.683Z,101127.63
2018-06-02T05:38:18.249Z,101134.69
2018-06-02T05:40:46.238Z,101131.96
2018-06-02T05:43:13.990Z,101131.48
2018-06-02T05:45:41.521Z,101130.95
2018-06-02T05:48:09.350Z,101126.00
2018-06-02T05:50:37.047Z,101136.11
2018-06-02T05:53:04.572Z,101134.22
2018-06-02T05:55:32.340Z,101127.47
2018-06-02T05:57:59.987Z,101126.48
2018-06-02T06:00:27.513Z,101126.38
2018-06-02T06:02:55.335Z,101120.97
2018-06-02T06:05:22.941Z,101119.94
2018-06-02T06:07:50.458Z,101122.88
2018-06-02T06:10:18.615Z,101123.16
2018-06-02T06:12:46.533Z,101113.64
2018-06-02T06:15:14.049Z,101113.45
2018-06-02T06:17:41.613Z,101117.28
2018-06-02T06:20:09.218Z,101122.49
2018-06-02T06:22:36.743Z,101124.52
2018-06-02T06:25:04.570Z,101118.14
2018-06-02T06:27:32.509Z,101114.47
2018-06-02T06:30:00.029Z,101113.48
2018-06-02T06:32:27.873Z,101113.33
2018-06-02T06:34:55.813Z,101113.21
2018-06-02T06:37:23.333Z,101111.66
2018-06-02T06:39:51.170Z,101111.02
2018-06-02T06:42:19.269Z,101105.98
2018-06-02T06:44:46.852Z,101103.20
2018-06-02T06:47:14.405Z,101102.18
2018-06-02T06:49:42.410Z,101109.07
2018-06-02T06:52:09.917Z,101111.08
2018-06-02T06:54:37.642Z,101111.23
2018-06-02T06:57:05.478Z,101106.58
2018-06-02T06:59:33.007Z,101103.56
2018-06-02T07:02:00.742Z,101102.36
2018-06-02T07:04:28.662Z,101109.58
2018-06-02T07:06:56.183Z,101108.31
2018-06-02T07:09:23.779Z,101105.23
2018-06-02T07:11:51.678Z,101105.69
2018-06-02T07:14:19.258Z,101102.11
2018-06-02T07:16:47.018Z,101107.95
2018-06-02T07:19:14.586Z,101100.84
2018-06-02T07:21:42.462Z,101107.95
2018-06-02T07:24:10.022Z,101109.69
2018-06-02T07:26:37.577Z,101105.55
2018-06-02T07:29:05.415Z,101110.89
2018-06-02T07:31:32.999Z,101112.87
2018-06-02T07:34:00.565Z,101102.25
2018-06-02T07:36:28.127Z,101107.27
2018-06-02T07:38:55.803Z,101101.86
2018-06-02T07:41:23.364Z,101103.02
2018-06-02T07:43:51.346Z,101098.14
2018-06-02T07:46:19.279Z,101100.34
2018-06-02T07:48:47.448Z,101096.33
2018-06-02T07:51:14.974Z,101091.04
2018-06-02T07:53:42.671Z,101095.70
2018-06-02T07:56:10.218Z,101091.70
2018-06-02T07:58:37.734Z,101082.66
2018-06-02T08:01:07.066Z,101085.86
2018-06-02T08:03:34.635Z,101058.92
2018-06-02T08:06:02.166Z,101087.02
2018-06-02T08:08:29.902Z,101090.73
2018-06-02T08:10:57.480Z,101088.39
2018-06-02T08:13:25.305Z,101080.63
2018-06-02T08:15:53.030Z,101085.33
2018-06-02T08:18:20.574Z,101084.03
2018-06-02T08:20:48.090Z,101078.41
2018-06-02T08:23:16.010Z,101085.12
2018-06-02T08:25:43.546Z,101081.66
2018-06-02T08:28:11.066Z,101080.86
2018-06-02T08:30:38.989Z,101079.31
2018-06-02T08:33:06.561Z,101078.66
2018-06-02T08:35:34.083Z,101078.35
2018-06-02T08:38:02.221Z,101079.25
2018-06-02T08:40:29.867Z,101075.70
2018-06-02T08:42:58.187Z,101076.84
2018-06-02T08:45:26.678Z,101072.59
2018-06-02T08:47:54.224Z,101081.97
2018-06-02T08:50:21.738Z,101060.05
2018-06-02T08:52:49.799Z,101075.92
2018-06-02T08:55:17.349Z,101077.17
2018-06-02T08:57:44.865Z,101075.18
2018-06-02T09:00:12.774Z,101075.33
2018-06-02T09:02:40.393Z,101079.10
2018-06-02T09:05:07.926Z,101078.92
2018-06-02T09:07:35.896Z,101072.60
2018-06-02T09:10:03.687Z,101080.13
2018-06-02T09:12:31.213Z,101076.26
2018-06-02T09:14:58.850Z,101069.83
2018-06-02T09:17:26.694Z,101067.77
2018-06-02T09:19:54.213Z,101076.20
2018-06-02T09:22:21.726Z,101053.46
2018-06-02T09:24:49.354Z,101063.39
2018-06-02T09:27:16.871Z,101058.04
2018-06-02T09:29:44.442Z,101053.59
2018-06-02T09:32:12.071Z,101064.61
2018-06-02T09:34:39.590Z,101059.54
2018-06-02T09:37:07.105Z,101064.36
2018-06-02T09:39:34.767Z,101059.64
2018-06-02T09:42:02.326Z,101057.25
2018-06-02T09:44:30.192Z,101052.56
2018-06-02T09:46:58.098Z,101049.56
2018-06-02T09:49:25.617Z,101050.70
2018-06-02T09:51:53.615Z,101053.81
2018-06-02T09:54:23.900Z,101047.97
2018-06-02T09:56:51.418Z,101052.14
2018-06-02T09:59:18.959Z,101048.29
2018-06-02T10:01:49.034Z,101045.68
2018-06-02T10:04:16.574Z,101048.30
2018-06-02T10:06:44.130Z,101052.79
2018-06-02T10:09:11.698Z,101046.41
2018-06-02T10:11:39.597Z,101054.34
2018-06-02T10:14:07.226Z,101048.44
2018-06-02T10:16:34.849Z,101045.28
2018-06-02T10:19:02.582Z,101043.56
2018-06-02T10:21:31.019Z,101049.54
2018-06-02T10:23:58.587Z,101041.67
2018-06-02T10:26:26.498Z,101053.36
2018-06-02T10:28:54.374Z,101046.14
2018-06-02T10:31:21.942Z,101045.39
2018-06-02T10:33:49.781Z,101046.22
2018-06-02T10:36:17.406Z,101045.88
2018-06-02T10:38:45.015Z,101052.03
2018-06-02T10:41:12.762Z,101055.91
2018-06-02T10:43:40.601Z,101048.88
2018-06-02T10:46:08.391Z,101049.91
2018-06-02T10:48:36.703Z,101046.74
2018-06-02T10:51:04.661Z,101040.62
2018-06-02T10:53:32.288Z,101041.79
2018-06-02T10:55:59.851Z,101042.62
2018-06-02T10:58:28.298Z,101034.84
2018-06-02T11:00:55.871Z,101037.97
2018-06-02T11:03:24.353Z,101039.98
2018-06-02T11:05:51.909Z,101034.55
2018-06-02T11:08:19.617Z,101029.52
2018-06-02T11:10:47.466Z,101029.09
2018-06-02T11:13:14.986Z,101036.61
2018-06-02T11:15:42.569Z,101039.50
2018-06-02T11:18:10.461Z,101034.48
2018-06-02T11:20:38.400Z,101038.74
2018-06-02T11:23:05.974Z,101036.30
2018-06-02T11:25:33.738Z,101042.62
2018-06-02T11:28:01.302Z,101039.15
2018-06-02T11:30:28.853Z,101041.09
2018-06-02T11:32:57.328Z,101033.05
2018-06-02T11:35:25.058Z,101048.56
2018-06-02T11:37:52.617Z,101038.84
2018-06-02T11:40:20.308Z,101036.23
2018-06-02T11:42:47.971Z,101026.39
2018-06-02T11:45:15.635Z,101021.47
2018-06-02T11:47:43.396Z,101034.27
2018-06-02T11:50:11.086Z,101036.87
2018-06-02T11:52:38.650Z,101021.08
2018-06-02T11:55:06.309Z,101026.67
2018-06-02T11:57:33.966Z,101021.17
2018-06-02T12:00:01.600Z,101020.09
2018-06-02T12:02:29.273Z,101024.91
2018-06-02T12:04:56.839Z,101025.38
2018-06-02T12:07:24.439Z,101021.47
2018-06-02T12:09:52.261Z,101029.44
2018-06-02T12:12:19.814Z,101011.28
2018-06-02T12:14:47.361Z,101007.84
2018-06-02T12:17:15.011Z,101006.70
2018-06-02T12:19:42.860Z,100993.47
2018-06-02T12:22:10.410Z,101001.34
2018-06-02T12:27:12.002Z,101000.92
2018-06-02T12:29:39.902Z,100999.89
2018-06-02T12:32:07.439Z,100990.08
2018-06-02T12:34:35.339Z,100975.63
2018-06-02T12:37:02.910Z,100986.67
2018-06-02T12:39:30.430Z,100978.89
2018-06-02T12:41:58.309Z,100978.44
2018-06-02T12:44:26.176Z,100976.63
2018-06-02T12:46:53.718Z,100979.66
2018-06-02T12:49:21.480Z,100969.75
2018-06-02T12:51:49.205Z,100963.89
2018-06-02T12:54:16.721Z,100961.31
2018-06-02T12:56:44.458Z,100965.87
2018-06-02T12:59:12.206Z,100966.46
2018-06-02T13:01:39.732Z,100964.78
2018-06-02T13:04:07.335Z,100962.93
2018-06-02T13:06:34.997Z,100956.13
2018-06-02T13:09:02.495Z,100949.47
2018-06-02T13:11:30.237Z,100945.69
2018-06-02T13:13:58.740Z,100942.33
2018-06-02T13:16:26.258Z,100947.53
2018-06-02T13:18:53.902Z,100939.41
2018-06-02T13:21:21.547Z,100935.08
2018-06-02T13:23:49.070Z,100943.79
2018-06-02T13:26:16.658Z,100942.14
2018-06-02T13:28:44.382Z,100939.55
2018-06-02T13:31:11.929Z,100940.17
2018-06-02T13:33:39.823Z,100938.03
2018-06-02T13:36:07.489Z,100933.00
2018-06-02T13:38:35.002Z,100930.51
2018-06-02T13:41:02.798Z,100937.63
2018-06-02T13:43:30.445Z,100931.81
2018-06-02T13:45:57.965Z,100940.00
2018-06-02T13:48:25.566Z,100933.76
2018-06-02T13:50:53.134Z,100929.22
2018-06-02T13:53:21.188Z,100929.77
2018-06-02T13:55:48.906Z,100934.51
2018-06-02T13:58:16.938Z,100934.70
2018-06-02T14:00:44.494Z,100930.20
2018-06-02T14:03:12.115Z,100931.86
2018-06-02T14:05:40.236Z,100932.99
2018-06-02T14:08:07.757Z,100925.22
2018-06-02T14:10:35.358Z,100916.08
2018-06-02T14:13:03.659Z,100921.02
2018-06-02T14:15:31.190Z,100930.88
2018-06-02T14:17:58.924Z,100931.53
2018-06-02T14:20:26.942Z,100934.75
2018-06-02T14:22:54.730Z,100929.09
2018-06-02T14:25:22.627Z,100919.70
2018-06-02T14:27:50.397Z,100909.78
2018-06-02T14:30:17.909Z,100911.91
2018-06-02T14:32:49.146Z,100917.39
2018-06-02T14:35:16.702Z,100918.34
2018-06-02T14:37:44.279Z,100912.94
2018-06-02T14:40:11.840Z,100905.79
2018-06-02T14:42:39.762Z,100904.41
2018-06-02T14:45:07.336Z,100906.98
2018-06-02T14:47:34.938Z,100899.70
2018-06-02T14:50:02.728Z,100893.92
2018-06-02T14:52:30.494Z,100896.53
2018-06-02T14:54:58.248Z,100902.03
2018-06-02T14:57:25.778Z,100903.75
2018-06-02T14:59:53.494Z,100904.33
2018-06-02T15:02:21.457Z,100905.27
2018-06-02T15:04:49.334Z,100911.02
2018-06-02T15:07:17.077Z,100908.37
2018-06-02T15:09:44.745Z,100906.76
2018-06-02T15:12:12.275Z,100903.55
2018-06-02T15:14:39.798Z,100909.41
2018-06-02T15:17:07.951Z,100899.46
2018-06-02T15:19:35.502Z,100899.28
2018-06-02T15:22:03.380Z,100907.89
2018-06-02T15:24:31.031Z,100913.75
2018-06-02T15:26:58.555Z,100914.02
2018-06-02T15:29:26.349Z,100910.17
2018-06-02T15:31:53.914Z,100908.03
2018-06-02T15:34:21.442Z,100913.26
2018-06-02T15:36:49.030Z,100916.30
2018-06-02T15:39:16.590Z,100921.40
2018-06-02T15:41:44.114Z,100917.61
2018-06-02T15:44:11.993Z,100926.92
2018-06-02T15:46:39.565Z,100926.02
2018-06-02T15:49:07.084Z,100923.12
2018-06-02T15:51:34.745Z,100921.65
2018-06-02T15:54:02.936Z,100928.80
2018-06-02T15:56:30.587Z,100928.89
2018-06-02T15:58:58.659Z,100930.25
2018-06-02T16:01:26.548Z,100902.55
2018-06-02T16:03:54.066Z,100924.63
2018-06-02T16:06:21.706Z,100920.05
2018-06-02T16:08:49.567Z,100925.51
2018-06-02T16:11:17.092Z,100921.98
2018-06-02T16:13:46.021Z,100929.92
2018-06-02T16:16:14.010Z,100933.56
2018-06-02T16:18:41.537Z,100933.48
2018-06-02T16:21:09.221Z,100924.85
2018-06-02T16:23:36.902Z,100934.34
2018-06-02T16:26:04.514Z,100938.53
2018-06-02T16:28:32.036Z,100947.74
2018-06-02T16:31:00.297Z,100942.75
2018-06-02T16:33:27.846Z,100946.81
2018-06-02T16:35:55.377Z,100935.17
2018-06-02T16:38:26.143Z,100941.59
2018-06-02T16:40:53.675Z,100943.38
2018-06-02T16:43:21.192Z,100949.67
2018-06-02T16:45:48.949Z,100943.55
2018-06-02T16:48:16.471Z,100948.80
2018-06-02T16:50:44.025Z,100946.50
2018-06-02T16:53:11.691Z,100945.81
2018-06-02T16:55:39.280Z,100940.72
2018-06-02T16:58:07.097Z,100947.53
2018-06-02T17:00:39.294Z,100945.31
2018-06-02T17:03:07.080Z,100947.39
2018-06-02T17:05:34.661Z,100957.05
2018-06-02T17:08:02.814Z,100957.05
2018-06-02T17:10:30.672Z,100958.19
2018-06-02T17:12:58.193Z,100963.61
2018-06-02T17:15:25.762Z,100967.56
2018-06-02T17:17:53.558Z,100979.01
2018-06-02T17:20:21.078Z,100964.30
2018-06-02T17:22:48.706Z,100980.17
2018-06-02T17:25:16.766Z,100976.59
2018-06-02T17:27:44.333Z,100983.43
2018-06-02T17:30:11.903Z,100984.05
2018-06-02T17:32:39.641Z,100983.58
2018-06-02T17:35:08.019Z,100981.06
2018-06-02T17:37:35.563Z,100980.11
2018-06-02T17:40:05.394Z,100981.00
2018-06-02T17:42:32.910Z,100981.53
2018-06-02T17:45:00.475Z,100983.17
2018-06-02T17:47:28.054Z,100981.58
2018-06-02T17:49:55.578Z,100989.86
2018-06-02T17:52:23.174Z,100994.09
2018-06-02T17:54:50.713Z,100992.48
2018-06-02T17:57:18.233Z,100993.59
2018-06-02T17:59:46.102Z,100992.02
2018-06-02T18:02:14.155Z,100991.49
2018-06-02T18:04:42.275Z,100991.20
2018-06-02T18:07:09.850Z,100994.44
2018-06-02T18:09:37.591Z,100992.70
2018-06-02T18:12:05.114Z,100990.06
2018-06-02T18:14:32.677Z,100993.30
2018-06-02T18:17:00.370Z,100991.70
2018-06-02T18:19:27.898Z,100988.67
2018-06-02T18:21:55.545Z,100990.10
2018-06-02T18:24:23.599Z,100982.61
2018-06-02T18:26:51.145Z,100991.67
2018-06-02T18:29:18.765Z,100986.91
2018-06-02T18:31:46.371Z,100978.89
2018-06-02T18:34:13.887Z,100977.66
2018-06-02T18:36:41.506Z,100983.67
2018-06-02T18:39:09.110Z,100977.11
2018-06-02T18:41:36.629Z,100973.66
2018-06-02T18:44:04.191Z,100971.11
2018-06-02T18:46:31.998Z,100973.45
2018-06-02T18:48:59.522Z,100975.72
2018-06-02T18:51:27.065Z,100968.73
2018-06-02T18:53:54.671Z,100970.62
2018-06-02T18:56:22.186Z,100974.28
2018-06-02T18:58:49.745Z,100975.27
2018-06-02T19:01:18.042Z,100977.16
2018-06-02T19:03:45.562Z,100974.99
2018-06-02T19:06:13.138Z,100980.80
2018-06-02T19:08:40.656Z,100981.77
2018-06-02T19:11:08.188Z,100985.41
2018-06-02T19:13:35.730Z,100984.66
2018-06-02T19:16:03.287Z,100984.71
2018-06-02T19:18:30.977Z,100981.19
2018-06-02T19:20:58.542Z,100980.36
2018-06-02T19:23:26.586Z,100981.76
2018-06-02T19:25:54.114Z,100984.95
2018-06-02T19:28:21.658Z,100985.87
2018-06-02T19:30:49.388Z,100993.06
2018-06-02T19:33:16.906Z,100992.69
2018-06-02T19:35:44.479Z,100993.67
2018-06-02T19:38:11.998Z,100999.09
2018-06-02T19:40:39.525Z,100997.41
2018-06-02T19:43:07.062Z,100988.61
2018-06-02T19:45:34.582Z,100991.25
2018-06-02T19:48:02.097Z,100991.28
2018-06-02T19:50:29.686Z,100992.23
2018-06-02T19:52:57.299Z,100988.32
2018-06-02T19:55:24.909Z,100994.49
2018-06-02T19:57:52.672Z,100977.78
2018-06-02T20:00:20.563Z,100999.47
2018-06-02T20:02:48.295Z,100996.41
2018-06-02T20:05:15.961Z,100996.00
2018-06-02T20:07:43.522Z,100987.62
2018-06-02T20:10:11.038Z,100993.87
2018-06-02T20:12:38.881Z,100997.00
2018-06-02T20:15:06.402Z,100999.23
2018-06-02T20:17:33.917Z,100993.50
2018-06-02T20:20:37.565Z,101005.22
2018-06-02T20:23:05.984Z,101001.67
2018-06-02T20:25:34.634Z,101002.14
2018-06-02T20:28:03.721Z,101002.59
2018-06-02T20:30:32.137Z,101009.27
2018-06-02T20:33:00.714Z,101007.95
2018-06-02T20:35:29.260Z,101010.62
2018-06-02T20:37:58.363Z,101014.17
2018-06-02T20:40:26.826Z,101008.43
2018-06-02T20:42:55.546Z,101015.97
2018-06-02T20:45:23.957Z,101007.55
2018-06-02T20:47:52.369Z,101010.66
2018-06-02T20:50:21.506Z,101017.30
2018-06-02T20:52:49.938Z,101011.09
2018-06-02T20:55:18.350Z,101015.97
2018-06-02T20:57:47.053Z,101014.22
2018-06-02T21:00:15.445Z,101007.13
2018-06-02T21:02:43.862Z,101008.92
2018-06-02T21:05:12.927Z,101014.25
2018-06-02T21:07:41.354Z,101016.47
2018-06-02T21:10:09.863Z,101009.39
2018-06-02T21:12:38.994Z,101012.48
2018-06-02T21:15:07.408Z,101010.72
2018-06-02T21:17:36.176Z,101012.06
2018-06-02T21:20:05.097Z,101001.89
2018-06-02T21:22:33.540Z,101005.45
2018-06-02T21:25:02.161Z,101005.45
2018-06-02T21:27:30.712Z,101003.24
2018-06-02T21:29:59.151Z,101001.92
2018-06-02T21:32:28.218Z,101004.16
2018-06-02T21:34:57.209Z,101005.03
2018-06-02T21:37:25.630Z,101003.70
2018-06-02T21:39:54.385Z,101005.45
2018-06-02T21:42:22.929Z,100997.47
2018-06-02T21:44:51.351Z,101001.02
2018-06-02T21:47:20.102Z,101005.86
2018-06-02T21:49:48.900Z,101008.08
2018-06-02T21:52:17.504Z,101014.27
2018-06-02T21:54:45.955Z,101008.96
2018-06-02T21:57:14.482Z,101012.50
2018-06-02T21:59:43.648Z,101008.96
2018-06-02T22:02:12.062Z,101014.28
2018-06-02T22:04:40.657Z,101012.05
2018-06-02T22:07:09.370Z,101009.38
2018-06-02T22:09:37.875Z,101011.16
2018-06-02T22:12:06.697Z,101005.88
2018-06-02T22:14:36.219Z,101008.55
2018-06-02T22:17:04.658Z,101012.98
2018-06-02T22:19:33.653Z,101013.89
2018-06-02T22:22:02.223Z,101009.94
2018-06-02T22:24:30.629Z,101017.04
2018-06-02T22:26:59.142Z,101019.25
2018-06-02T22:29:27.783Z,101021.91
2018-06-02T22:31:56.198Z,101021.02
2018-06-02T22:34:24.790Z,101031.20
2018-06-02T22:36:53.517Z,101037.43
2018-06-02T22:39:21.930Z,101036.09
2018-06-02T22:41:51.109Z,101027.70
2018-06-02T22:44:19.818Z,101029.47
2018-06-02T22:46:48.247Z,101036.98
2018-06-02T22:49:16.870Z,101039.20
2018-06-02T22:51:56.406Z,101042.78
2018-06-02T22:54:25.423Z,101038.80
2018-06-02T22:56:53.983Z,101037.03
2018-06-02T22:59:22.605Z,101042.33
2018-06-02T23:01:51.657Z,101035.69
2018-06-02T23:04:20.086Z,101033.92
2018-06-02T23:06:48.729Z,101040.56
2018-06-02T23:09:17.590Z,101034.37
2018-06-02T23:11:46.014Z,101025.08
2018-06-02T23:14:15.060Z,101014.91
2018-06-02T23:16:43.785Z,101014.47
2018-06-02T23:19:12.270Z,101016.69
2018-06-02T23:21:40.727Z,101018.89
2018-06-02T23:24:09.805Z,101017.13
2018-06-02T23:26:38.234Z,101018.02
2018-06-02T23:29:06.678Z,101014.03
2018-06-02T23:31:35.295Z,101014.91
2018-06-02T23:34:03.728Z,101014.47
2018-06-02T23:36:32.181Z,101021.10
2018-06-02T23:39:01.094Z,101008.28
2018-06-02T23:41:29.571Z,101012.70
2018-06-02T23:43:58.126Z,101010.49
2018-06-02T23:46:26.757Z,100987.05
2018-06-02T23:48:55.197Z,101020.22
2018-06-02T23:51:23.613Z,101023.75
2018-06-02T23:53:52.286Z,101023.31
2018-06-02T23:56:20.700Z,101025.97
2018-06-02T23:58:49.121Z,101018.89
